Alleghany, California
Current Conditions -  °F | °C
As of 8:52 PM on Friday 24 Oct 2014 (Local Time) from KBLU Reporting Station
Clear Clear  
Wind Chill: 57°   Ceiling: Unl
Heat Index: 57°   Visibility: 10mi
Dew Point: 32°   Wind: 10mph
Humidity: 39%   Direction: 150°SSE
Pressure: 30.06"   Gusts: 24mph
Location:  39.47°N, 120.85°W
Report Text: KBLU 250352Z AUTO 15009G21KT 10SM CLR 14/00 A3006 RMK AO2 SLP125 T01390000
Loading
Personal Weather Stations






























Interactive Weather Map New forecast layout! Learn more

10-Day Weather Forecast

Advertisements
Track Severe Weather on mobile